sensor_id;sensor_type;location;lat;lon;timestamp;pressure;altitude;pressure_sealevel;temperature;humidity
51359;BME280;37448;51.588;7.248;2023-04-29T00:01:58;100622.56;;;10.50;95.33
51359;BME280;37448;51.588;7.248;2023-04-29T00:03:59;100630.38;;;10.50;94.65
51359;BME280;37448;51.588;7.248;2023-04-29T00:06:00;100633.09;;;10.44;94.38
51359;BME280;37448;51.588;7.248;2023-04-29T00:08:00;100633.03;;;10.47;94.95
51359;BME280;37448;51.588;7.248;2023-04-29T00:10:01;100638.31;;;10.44;94.48
51359;BME280;37448;51.588;7.248;2023-04-29T00:12:02;100636.59;;;10.44;94.65
51359;BME280;37448;51.588;7.248;2023-04-29T00:14:02;100637.44;;;10.45;94.55
51359;BME280;37448;51.588;7.248;2023-04-29T00:16:03;100640.03;;;10.45;95.37
51359;BME280;37448;51.588;7.248;2023-04-29T00:18:04;100643.66;;;10.38;94.76
51359;BME280;37448;51.588;7.248;2023-04-29T00:20:05;100641.00;;;10.42;95.31
51359;BME280;37448;51.588;7.248;2023-04-29T00:22:06;100651.47;;;10.39;94.50
51359;BME280;37448;51.588;7.248;2023-04-29T00:24:07;100646.25;;;10.39;95.29
51359;BME280;37448;51.588;7.248;2023-04-29T00:26:07;100650.59;;;10.39;94.95
51359;BME280;37448;51.588;7.248;2023-04-29T00:28:07;100653.28;;;10.34;95.41
51359;BME280;37448;51.588;7.248;2023-04-29T00:30:08;100662.13;;;10.28;94.60
51359;BME280;37448;51.588;7.248;2023-04-29T00:32:08;100657.81;;;10.24;94.25
51359;BME280;37448;51.588;7.248;2023-04-29T00:34:09;100665.63;;;10.26;95.34
51359;BME280;37448;51.588;7.248;2023-04-29T00:36:10;100663.94;;;10.23;94.96
51359;BME280;37448;51.588;7.248;2023-04-29T00:38:10;100670.84;;;10.26;95.52
51359;BME280;37448;51.588;7.248;2023-04-29T00:40:11;100664.91;;;10.19;94.46
51359;BME280;37448;51.588;7.248;2023-04-29T00:42:14;100671.84;;;10.20;94.70
51359;BME280;37448;51.588;7.248;2023-04-29T00:44:14;100668.38;;;10.19;95.29
51359;BME280;37448;51.588;7.248;2023-04-29T00:46:15;100671.88;;;10.18;94.97
51359;BME280;37448;51.588;7.248;2023-04-29T00:48:16;100671.97;;;10.14;95.05
51359;BME280;37448;51.588;7.248;2023-04-29T00:50:16;100681.44;;;10.18;94.72
51359;BME280;37448;51.588;7.248;2023-04-29T00:52:17;100682.53;;;10.08;94.65
51359;BME280;37448;51.588;7.248;2023-04-29T00:54:18;100679.81;;;10.12;95.11
51359;BME280;37448;51.588;7.248;2023-04-29T00:56:19;100689.41;;;10.12;94.85
51359;BME280;37448;51.588;7.248;2023-04-29T00:58:23;100691.19;;;10.10;94.47
51359;BME280;37448;51.588;7.248;2023-04-29T01:00:29;100688.63;;;10.07;95.01
51359;BME280;37448;51.588;7.248;2023-04-29T01:02:30;100688.66;;;10.05;94.73
51359;BME280;37448;51.588;7.248;2023-04-29T01:04:30;100693.81;;;10.08;95.56
51359;BME280;37448;51.588;7.248;2023-04-29T01:11:09;100696.50;;;10.03;95.48
51359;BME280;37448;51.588;7.248;2023-04-29T01:13:17;100696.50;;;10.03;95.81
51359;BME280;37448;51.588;7.248;2023-04-29T01:15:28;100698.28;;;10.01;95.44
51359;BME280;37448;51.588;7.248;2023-04-29T01:17:35;100703.53;;;9.98;95.84
51359;BME280;37448;51.588;7.248;2023-04-29T01:19:43;100707.94;;;9.96;95.61
51359;BME280;37448;51.588;7.248;2023-04-29T01:21:46;100707.03;;;9.99;96.20
51359;BME280;37448;51.588;7.248;2023-04-29T01:23:50;100699.19;;;9.99;96.34
51359;BME280;37448;51.588;7.248;2023-04-29T01:25:57;100705.38;;;9.95;96.13
51359;BME280;37448;51.588;7.248;2023-04-29T01:28:33;100713.19;;;9.95;95.92
51359;BME280;37448;51.588;7.248;2023-04-29T01:30:45;100706.25;;;9.92;95.92
51359;BME280;37448;51.588;7.248;2023-04-29T01:33:04;100714.22;;;9.84;95.29
51359;BME280;37448;51.588;7.248;2023-04-29T01:35:32;100717.69;;;9.85;95.08
51359;BME280;37448;51.588;7.248;2023-04-29T01:37:58;100717.88;;;9.74;94.64
51359;BME280;37448;51.588;7.248;2023-04-29T01:40:21;100724.88;;;9.70;95.03
51359;BME280;37448;51.588;7.248;2023-04-29T01:42:47;100726.66;;;9.68;94.67
51359;BME280;37448;51.588;7.248;2023-04-29T01:44:54;100725.00;;;9.64;95.19
51359;BME280;37448;51.588;7.248;2023-04-29T01:46:56;100731.16;;;9.60;94.24
51359;BME280;37448;51.588;7.248;2023-04-29T01:49:03;100730.25;;;9.61;95.47
51359;BME280;37448;51.588;7.248;2023-04-29T01:51:04;100727.78;;;9.53;94.49
51359;BME280;37448;51.588;7.248;2023-04-29T01:53:05;100732.88;;;9.61;94.99
51359;BME280;37448;51.588;7.248;2023-04-29T01:55:07;100736.38;;;9.60;95.85
51359;BME280;37448;51.588;7.248;2023-04-29T01:57:43;100734.72;;;9.54;95.48
51359;BME280;37448;51.588;7.248;2023-04-29T02:00:04;100739.03;;;9.57;95.84
51359;BME280;37448;51.588;7.248;2023-04-29T02:02:15;100739.06;;;9.54;95.42
51359;BME280;37448;51.588;7.248;2023-04-29T02:04:26;100742.63;;;9.46;94.45
51359;BME280;37448;51.588;7.248;2023-04-29T02:06:27;100741.75;;;9.47;94.58
51359;BME280;37448;51.588;7.248;2023-04-29T02:08:32;100747.91;;;9.43;94.83
51359;BME280;37448;51.588;7.248;2023-04-29T02:10:34;100748.81;;;9.41;94.56
51359;BME280;37448;51.588;7.248;2023-04-29T02:12:45;100751.41;;;9.42;94.94
51359;BME280;37448;51.588;7.248;2023-04-29T02:14:46;100748.81;;;9.41;95.09
51359;BME280;37448;51.588;7.248;2023-04-29T02:16:47;100760.19;;;9.35;94.15
51359;BME280;37448;51.588;7.248;2023-04-29T02:18:48;100754.94;;;9.38;95.18
51359;BME280;37448;51.588;7.248;2023-04-29T02:20:48;100761.03;;;9.37;95.41
51359;BME280;37448;51.588;7.248;2023-04-29T02:22:50;100762.75;;;9.37;94.94
51359;BME280;37448;51.588;7.248;2023-04-29T02:24:51;100760.25;;;9.32;94.54
51359;BME280;37448;51.588;7.248;2023-04-29T02:26:51;100767.19;;;9.31;94.85
51359;BME280;37448;51.588;7.248;2023-04-29T02:28:52;100762.84;;;9.32;94.96
51359;BME280;37448;51.588;7.248;2023-04-29T02:30:54;100767.22;;;9.30;95.26
51359;BME280;37448;51.588;7.248;2023-04-29T02:32:55;100775.88;;;9.32;95.45
51359;BME280;37448;51.588;7.248;2023-04-29T02:34:55;100765.50;;;9.29;94.88
51359;BME280;37448;51.588;7.248;2023-04-29T02:36:56;100776.78;;;9.31;94.92
51359;BME280;37448;51.588;7.248;2023-04-29T02:38:56;100779.44;;;9.25;95.19
51359;BME280;37448;51.588;7.248;2023-04-29T02:40:58;100784.66;;;9.25;95.51
51359;BME280;37448;51.588;7.248;2023-04-29T02:42:58;100782.94;;;9.24;94.96
51359;BME280;37448;51.588;7.248;2023-04-29T02:45:01;100787.34;;;9.20;94.54
51359;BME280;37448;51.588;7.248;2023-04-29T02:47:01;100785.72;;;9.11;94.64
51359;BME280;37448;51.588;7.248;2023-04-29T02:49:03;100793.47;;;9.14;94.90
51359;BME280;37448;51.588;7.248;2023-04-29T02:51:03;100793.47;;;9.14;95.23
51359;BME280;37448;51.588;7.248;2023-04-29T02:53:03;100791.75;;;9.13;95.80
51359;BME280;37448;51.588;7.248;2023-04-29T02:55:04;100799.63;;;9.10;95.29
51359;BME280;37448;51.588;7.248;2023-04-29T02:57:05;100795.25;;;9.11;95.85
51359;BME280;37448;51.588;7.248;2023-04-29T02:59:05;100797.00;;;9.10;95.31
51359;BME280;37448;51.588;7.248;2023-04-29T03:01:06;100793.63;;;9.05;95.39
51359;BME280;37448;51.588;7.248;2023-04-29T03:03:06;100802.28;;;9.07;95.56
51359;BME280;37448;51.588;7.248;2023-04-29T03:05:07;100798.84;;;9.02;94.91
51359;BME280;37448;51.588;7.248;2023-04-29T03:07:07;100803.16;;;9.06;95.70
51359;BME280;37448;51.588;7.248;2023-04-29T03:09:08;100802.28;;;9.07;95.64
51359;BME280;37448;51.588;7.248;2023-04-29T03:11:08;100801.34;;;9.11;95.70
51359;BME280;37448;51.588;7.248;2023-04-29T03:13:09;100810.84;;;9.15;96.31
51359;BME280;37448;51.588;7.248;2023-04-29T03:15:10;100803.94;;;9.11;95.41
51359;BME280;37448;51.588;7.248;2023-04-29T03:17:11;100809.19;;;9.08;95.91
51359;BME280;37448;51.588;7.248;2023-04-29T03:19:11;100811.69;;;9.17;96.12
51359;BME280;37448;51.588;7.248;2023-04-29T03:21:12;100813.44;;;9.14;96.38
51359;BME280;37448;51.588;7.248;2023-04-29T03:23:12;100810.84;;;9.17;96.04
51359;BME280;37448;51.588;7.248;2023-04-29T03:25:12;100812.56;;;9.16;96.30
51359;BME280;37448;51.588;7.248;2023-04-29T03:27:13;100811.69;;;9.17;96.43
51359;BME280;37448;51.588;7.248;2023-04-29T03:29:13;100822.16;;;9.14;96.16
51359;BME280;37448;51.588;7.248;2023-04-29T03:31:14;100820.44;;;9.12;95.53
51359;BME280;37448;51.588;7.248;2023-04-29T03:33:16;100814.38;;;9.11;95.61
51359;BME280;37448;51.588;7.248;2023-04-29T03:35:16;100815.31;;;9.05;95.86
51359;BME280;37448;51.588;7.248;2023-04-29T03:37:37;100821.34;;;9.09;96.60
51359;BME280;37448;51.588;7.248;2023-04-29T03:39:56;100824.00;;;9.04;95.68
51359;BME280;37448;51.588;7.248;2023-04-29T03:41:59;100826.59;;;9.03;95.86
51359;BME280;37448;51.588;7.248;2023-04-29T03:44:00;100820.50;;;9.04;95.97
51359;BME280;37448;51.588;7.248;2023-04-29T03:46:02;100830.94;;;9.04;96.02
51359;BME280;37448;51.588;7.248;2023-04-29T03:48:03;100830.97;;;9.02;95.58
51359;BME280;37448;51.588;7.248;2023-04-29T03:50:04;100831.94;;;8.94;96.12
51359;BME280;37448;51.588;7.248;2023-04-29T03:52:05;100830.97;;;9.01;95.90
51359;BME280;37448;51.588;7.248;2023-04-29T03:54:06;100830.13;;;8.99;95.83
51359;BME280;37448;51.588;7.248;2023-04-29T03:56:06;100828.41;;;8.98;96.55
51359;BME280;37448;51.588;7.248;2023-04-29T03:58:07;100833.63;;;8.98;95.89
51359;BME280;37448;51.588;7.248;2023-04-29T04:00:08;100844.00;;;9.01;96.04
51359;BME280;37448;51.588;7.248;2023-04-29T04:02:18;100836.25;;;8.96;96.73
51359;BME280;37448;51.588;7.248;2023-04-29T04:04:18;100838.03;;;8.94;95.71
51359;BME280;37448;51.588;7.248;2023-04-29T04:06:21;100842.31;;;8.97;96.01
51359;BME280;37448;51.588;7.248;2023-04-29T04:08:22;100849.25;;;8.99;96.74
51359;BME280;37448;51.588;7.248;2023-04-29T04:10:29;100844.03;;;8.98;96.59
51359;BME280;37448;51.588;7.248;2023-04-29T04:12:30;100849.28;;;8.95;96.11
51359;BME280;37448;51.588;7.248;2023-04-29T04:14:31;100850.13;;;8.97;96.87
51359;BME280;37448;51.588;7.248;2023-04-29T04:16:32;100850.22;;;8.90;96.13
51359;BME280;37448;51.588;7.248;2023-04-29T04:18:32;100852.81;;;8.89;96.08
51359;BME280;37448;51.588;7.248;2023-04-29T04:20:36;100859.75;;;8.92;96.25
51359;BME280;37448;51.588;7.248;2023-04-29T04:22:36;100855.38;;;8.94;96.17
51359;BME280;37448;51.588;7.248;2023-04-29T04:24:47;100864.03;;;8.96;96.60
51359;BME280;37448;51.588;7.248;2023-04-29T04:26:48;100866.66;;;8.96;95.98
51359;BME280;37448;51.588;7.248;2023-04-29T04:28:52;100864.91;;;8.96;96.27
51359;BME280;37448;51.588;7.248;2023-04-29T04:31:00;100867.53;;;8.96;96.54
51359;BME280;37448;51.588;7.248;2023-04-29T04:33:01;100866.69;;;8.93;96.48
51359;BME280;37448;51.588;7.248;2023-04-29T04:35:02;100866.59;;;8.99;96.52
51359;BME280;37448;51.588;7.248;2023-04-29T04:37:02;100871.81;;;8.99;96.77
51359;BME280;37448;51.588;7.248;2023-04-29T04:39:04;100877.06;;;8.96;96.07
51359;BME280;37448;51.588;7.248;2023-04-29T04:41:06;100881.38;;;8.97;96.22
51359;BME280;37448;51.588;7.248;2023-04-29T04:43:11;100885.72;;;8.98;96.20
51359;BME280;37448;51.588;7.248;2023-04-29T04:45:14;100886.59;;;8.97;95.81
51359;BME280;37448;51.588;7.248;2023-04-29T04:47:21;100885.66;;;9.04;96.38
51359;BME280;37448;51.588;7.248;2023-04-29T04:49:36;100885.69;;;9.01;96.43
51359;BME280;37448;51.588;7.248;2023-04-29T04:51:37;100891.78;;;9.00;96.00
51359;BME280;37448;51.588;7.248;2023-04-29T04:53:38;100889.13;;;9.03;96.41
51359;BME280;37448;51.588;7.248;2023-04-29T04:55:43;100894.34;;;9.03;96.16
51359;BME280;37448;51.588;7.248;2023-04-29T04:57:43;100902.22;;;8.97;96.01
51359;BME280;37448;51.588;7.248;2023-04-29T04:59:45;100895.28;;;8.97;95.69
51359;BME280;37448;51.588;7.248;2023-04-29T05:01:45;100910.00;;;9.00;95.59
51359;BME280;37448;51.588;7.248;2023-04-29T05:03:46;100911.69;;;9.04;96.06
51359;BME280;37448;51.588;7.248;2023-04-29T05:05:55;100910.00;;;9.00;95.88
51359;BME280;37448;51.588;7.248;2023-04-29T05:07:55;100911.69;;;9.07;96.68
51359;BME280;37448;51.588;7.248;2023-04-29T05:10:04;100910.84;;;9.03;96.29
51359;BME280;37448;51.588;7.248;2023-04-29T05:12:07;100914.34;;;9.02;95.52
51359;BME280;37448;51.588;7.248;2023-04-29T05:14:07;100916.91;;;9.04;96.06
51359;BME280;37448;51.588;7.248;2023-04-29T05:16:08;100923.00;;;9.03;96.02
51359;BME280;37448;51.588;7.248;2023-04-29T05:18:12;100929.97;;;9.02;95.99
51359;BME280;37448;51.588;7.248;2023-04-29T05:20:16;100919.59;;;8.99;95.94
51359;BME280;37448;51.588;7.248;2023-04-29T05:22:17;100923.97;;;8.93;95.12
51359;BME280;37448;51.588;7.248;2023-04-29T05:24:18;100926.59;;;8.94;95.12
51359;BME280;37448;51.588;7.248;2023-04-29T05:26:19;100923.94;;;8.97;95.94
51359;BME280;37448;51.588;7.248;2023-04-29T05:28:20;100932.53;;;9.04;96.55
51359;BME280;37448;51.588;7.248;2023-04-29T05:30:21;100934.25;;;9.08;96.71
51359;BME280;37448;51.588;7.248;2023-04-29T05:32:22;100929.03;;;9.08;96.08
51359;BME280;37448;51.588;7.248;2023-04-29T05:34:23;100927.34;;;9.02;95.37
51359;BME280;37448;51.588;7.248;2023-04-29T05:36:23;100937.75;;;9.04;95.80
51359;BME280;37448;51.588;7.248;2023-04-29T05:38:24;100938.59;;;9.08;95.81
51359;BME280;37448;51.588;7.248;2023-04-29T05:40:36;100942.00;;;9.13;96.44
51359;BME280;37448;51.588;7.248;2023-04-29T05:43:00;100942.88;;;9.13;96.16
51359;BME280;37448;51.588;7.248;2023-04-29T05:45:01;100943.84;;;9.03;95.40
51359;BME280;37448;51.588;7.248;2023-04-29T05:47:01;100948.13;;;9.10;95.73
51359;BME280;37448;51.588;7.248;2023-04-29T05:49:02;100955.94;;;9.09;95.46
51359;BME280;37448;51.588;7.248;2023-04-29T05:51:02;100952.50;;;9.07;95.79
51359;BME280;37448;51.588;7.248;2023-04-29T05:53:03;100962.88;;;9.10;95.44
51359;BME280;37448;51.588;7.248;2023-04-29T05:55:04;100957.75;;;9.05;95.19
51359;BME280;37448;51.588;7.248;2023-04-29T05:57:05;100968.16;;;9.05;94.91
51359;BME280;37448;51.588;7.248;2023-04-29T05:59:05;100962.94;;;9.02;94.30
51359;BME280;37448;51.588;7.248;2023-04-29T06:01:06;100962.94;;;9.02;94.49
51359;BME280;37448;51.588;7.248;2023-04-29T06:03:06;100965.56;;;9.05;94.74
51359;BME280;37448;51.588;7.248;2023-04-29T06:05:07;100972.44;;;9.09;95.21
51359;BME280;37448;51.588;7.248;2023-04-29T06:07:16;100981.16;;;9.08;94.63
51359;BME280;37448;51.588;7.248;2023-04-29T06:09:27;100981.13;;;9.11;95.07
51359;BME280;37448;51.588;7.248;2023-04-29T06:11:30;100983.69;;;9.14;94.59
51359;BME280;37448;51.588;7.248;2023-04-29T06:13:31;100988.06;;;9.12;94.73
51359;BME280;37448;51.588;7.248;2023-04-29T06:15:32;100998.47;;;9.12;94.20
51359;BME280;37448;51.588;7.248;2023-04-29T06:17:32;100999.31;;;9.13;94.87
51359;BME280;37448;51.588;7.248;2023-04-29T06:19:33;100998.47;;;9.12;94.30
51359;BME280;37448;51.588;7.248;2023-04-29T06:21:33;101006.25;;;9.14;94.35
51359;BME280;37448;51.588;7.248;2023-04-29T06:23:33;101007.09;;;9.17;94.54
51359;BME280;37448;51.588;7.248;2023-04-29T06:25:39;101003.69;;;9.12;93.66
51359;BME280;37448;51.588;7.248;2023-04-29T06:27:41;101007.16;;;9.10;93.36
51359;BME280;37448;51.588;7.248;2023-04-29T06:29:42;101008.06;;;9.09;93.59
51359;BME280;37448;51.588;7.248;2023-04-29T06:31:42;101014.16;;;9.03;93.17
51359;BME280;37448;51.588;7.248;2023-04-29T06:33:43;101004.66;;;8.99;92.87
51359;BME280;37448;51.588;7.248;2023-04-29T06:35:43;101015.97;;;8.98;93.51
51359;BME280;37448;51.588;7.248;2023-04-29T06:38:07;101012.50;;;8.97;93.82
51359;BME280;37448;51.588;7.248;2023-04-29T06:40:08;101016.84;;;8.97;93.76
51359;BME280;37448;51.588;7.248;2023-04-29T06:42:28;101021.19;;;8.95;93.82
51359;BME280;37448;51.588;7.248;2023-04-29T06:44:47;101023.84;;;8.93;93.82
51359;BME280;37448;51.588;7.248;2023-04-29T06:46:53;101035.16;;;8.86;93.72
51359;BME280;37448;51.588;7.248;2023-04-29T06:49:01;101040.38;;;8.87;93.41
51359;BME280;37448;51.588;7.248;2023-04-29T06:51:01;101037.78;;;8.86;94.07
51359;BME280;37448;51.588;7.248;2023-04-29T06:53:02;101043.88;;;8.83;93.75
51359;BME280;37448;51.588;7.248;2023-04-29T06:55:03;101048.25;;;8.81;93.64
51359;BME280;37448;51.588;7.248;2023-04-29T06:57:03;101054.31;;;8.83;94.34
51359;BME280;37448;51.588;7.248;2023-04-29T06:59:03;101055.19;;;8.82;93.81
51359;BME280;37448;51.588;7.248;2023-04-29T07:01:04;101063.00;;;8.79;93.35
51359;BME280;37448;51.588;7.248;2023-04-29T07:03:06;101058.63;;;8.84;94.27
51359;BME280;37448;51.588;7.248;2023-04-29T07:05:09;101056.88;;;8.86;93.67
51359;BME280;37448;51.588;7.248;2023-04-29T07:07:10;101064.72;;;8.82;93.59
51359;BME280;37448;51.588;7.248;2023-04-29T07:09:12;101070.78;;;8.85;93.91
51359;BME280;37448;51.588;7.248;2023-04-29T07:11:13;101069.06;;;8.84;93.58
51359;BME280;37448;51.588;7.248;2023-04-29T07:13:13;101066.41;;;8.87;94.51
51359;BME280;37448;51.588;7.248;2023-04-29T07:15:15;101075.97;;;8.87;94.63
51359;BME280;37448;51.588;7.248;2023-04-29T07:17:16;101072.47;;;8.89;94.20
51359;BME280;37448;51.588;7.248;2023-04-29T07:19:16;101076.88;;;8.84;93.76
51359;BME280;37448;51.588;7.248;2023-04-29T07:21:17;101077.72;;;8.86;93.60
51359;BME280;37448;51.588;7.248;2023-04-29T07:23:17;101081.19;;;8.84;92.99
51359;BME280;37448;51.588;7.248;2023-04-29T07:25:19;101082.03;;;8.87;94.11
51359;BME280;37448;51.588;7.248;2023-04-29T07:27:20;101086.38;;;8.88;94.24
51359;BME280;37448;51.588;7.248;2023-04-29T07:29:20;101092.44;;;8.90;94.82
51359;BME280;37448;51.588;7.248;2023-04-29T07:31:20;101094.16;;;8.92;94.56
51359;BME280;37448;51.588;7.248;2023-04-29T07:33:21;101107.19;;;8.90;94.20
51359;BME280;37448;51.588;7.248;2023-04-29T07:35:22;101108.03;;;8.94;94.57
51359;BME280;37448;51.588;7.248;2023-04-29T07:37:23;101104.59;;;8.92;94.83
51359;BME280;37448;51.588;7.248;2023-04-29T07:39:24;101116.72;;;8.96;93.76
51359;BME280;37448;51.588;7.248;2023-04-29T07:41:28;101110.66;;;8.95;94.11
51359;BME280;37448;51.588;7.248;2023-04-29T07:43:29;101118.44;;;8.97;94.31
51359;BME280;37448;51.588;7.248;2023-04-29T07:45:29;101122.78;;;8.99;94.24
51359;BME280;37448;51.588;7.248;2023-04-29T07:47:30;101129.75;;;8.94;93.45
51359;BME280;37448;51.588;7.248;2023-04-29T07:49:30;101128.84;;;8.97;93.61
51359;BME280;37448;51.588;7.248;2023-04-29T07:51:31;101127.13;;;8.96;93.63
51359;BME280;37448;51.588;7.248;2023-04-29T07:53:32;101141.06;;;8.87;93.12
51359;BME280;37448;51.588;7.248;2023-04-29T07:55:32;101141.03;;;8.95;94.31
51359;BME280;37448;51.588;7.248;2023-04-29T07:57:34;101137.53;;;8.96;94.75
51359;BME280;37448;51.588;7.248;2023-04-29T07:59:35;101142.72;;;9.02;94.46
51359;BME280;37448;51.588;7.248;2023-04-29T08:01:36;101144.44;;;9.03;94.57
51359;BME280;37448;51.588;7.248;2023-04-29T08:03:36;101148.84;;;8.96;93.43
51359;BME280;37448;51.588;7.248;2023-04-29T08:05:37;101153.13;;;9.05;94.64
51359;BME280;37448;51.588;7.248;2023-04-29T08:07:38;101152.22;;;9.09;94.96
51359;BME280;37448;51.588;7.248;2023-04-29T08:09:39;101153.97;;;9.07;94.10
51359;BME280;37448;51.588;7.248;2023-04-29T08:11:39;101160.06;;;9.03;93.98
51359;BME280;37448;51.588;7.248;2023-04-29T08:13:39;101157.47;;;9.06;94.47
51359;BME280;37448;51.588;7.248;2023-04-29T08:15:40;101167.88;;;9.03;93.72
51359;BME280;37448;51.588;7.248;2023-04-29T08:17:40;101163.56;;;9.05;93.93
51359;BME280;37448;51.588;7.248;2023-04-29T08:19:41;101171.38;;;9.03;93.06
51359;BME280;37448;51.588;7.248;2023-04-29T08:21:41;101173.09;;;9.04;93.94
51359;BME280;37448;51.588;7.248;2023-04-29T08:23:41;101171.38;;;9.05;93.61
51359;BME280;37448;51.588;7.248;2023-04-29T08:25:42;101169.59;;;9.10;93.65
51359;BME280;37448;51.588;7.248;2023-04-29T08:27:43;101173.97;;;9.05;93.20
51359;BME280;37448;51.588;7.248;2023-04-29T08:29:45;101164.31;;;9.15;94.08
51359;BME280;37448;51.588;7.248;2023-04-29T08:31:45;101178.19;;;9.22;94.31
51359;BME280;37448;51.588;7.248;2023-04-29T08:33:47;101172.09;;;9.23;94.10
51359;BME280;37448;51.588;7.248;2023-04-29T08:35:47;101177.31;;;9.23;93.42
51359;BME280;37448;51.588;7.248;2023-04-29T08:37:47;101179.91;;;9.23;92.35
51359;BME280;37448;51.588;7.248;2023-04-29T08:39:48;101182.50;;;9.29;93.20
51359;BME280;37448;51.588;7.248;2023-04-29T08:41:48;101186.00;;;9.22;91.99
51359;BME280;37448;51.588;7.248;2023-04-29T08:43:51;101197.25;;;9.28;93.32
51359;BME280;37448;51.588;7.248;2023-04-29T08:45:51;101197.25;;;9.28;93.17
51359;BME280;37448;51.588;7.248;2023-04-29T08:47:53;101198.13;;;9.29;92.71
51359;BME280;37448;51.588;7.248;2023-04-29T08:49:58;101196.38;;;9.31;92.65
51359;BME280;37448;51.588;7.248;2023-04-29T08:52:00;101206.81;;;9.31;93.11
51359;BME280;37448;51.588;7.248;2023-04-29T08:54:01;101198.97;;;9.32;93.41
51359;BME280;37448;51.588;7.248;2023-04-29T08:56:07;101206.78;;;9.34;93.76
51359;BME280;37448;51.588;7.248;2023-04-29T08:58:09;101204.13;;;9.36;93.36
51359;BME280;37448;51.588;7.248;2023-04-29T09:00:10;101211.94;;;9.40;93.80
51359;BME280;37448;51.588;7.248;2023-04-29T09:02:12;101208.56;;;9.29;91.77
51359;BME280;37448;51.588;7.248;2023-04-29T09:04:41;101206.66;;;9.46;93.90
51359;BME280;37448;51.588;7.248;2023-04-29T09:06:47;101205.75;;;9.52;93.55
51359;BME280;37448;51.588;7.248;2023-04-29T09:08:47;101212.66;;;9.59;93.55
51359;BME280;37448;51.588;7.248;2023-04-29T09:10:49;101206.59;;;9.59;93.46
51359;BME280;37448;51.588;7.248;2023-04-29T09:12:50;101204.81;;;9.66;92.69
51359;BME280;37448;51.588;7.248;2023-04-29T09:14:50;101205.63;;;9.69;92.83
51359;BME280;37448;51.588;7.248;2023-04-29T09:16:51;101210.84;;;9.69;91.51
51359;BME280;37448;51.588;7.248;2023-04-29T09:18:51;101211.63;;;9.81;92.71
51359;BME280;37448;51.588;7.248;2023-04-29T09:20:53;101216.97;;;9.67;89.12
51359;BME280;37448;51.588;7.248;2023-04-29T09:23:01;101221.19;;;9.77;90.60
51359;BME280;37448;51.588;7.248;2023-04-29T09:25:11;101227.19;;;9.90;92.67
51359;BME280;37448;51.588;7.248;2023-04-29T09:27:25;101223.09;;;9.61;87.82
51359;BME280;37448;51.588;7.248;2023-04-29T09:29:25;101236.00;;;9.75;89.47
51359;BME280;37448;51.588;7.248;2023-04-29T09:31:26;101229.78;;;9.88;91.67
51359;BME280;37448;51.588;7.248;2023-04-29T09:33:27;101232.41;;;9.87;89.87
51359;BME280;37448;51.588;7.248;2023-04-29T09:35:30;101236.75;;;9.89;90.63
51359;BME280;37448;51.588;7.248;2023-04-29T09:37:30;101241.91;;;9.94;90.05
51359;BME280;37448;51.588;7.248;2023-04-29T09:39:38;101241.88;;;9.99;91.21
51359;BME280;37448;51.588;7.248;2023-04-29T09:41:40;101240.09;;;10.04;89.94
51359;BME280;37448;51.588;7.248;2023-04-29T09:43:42;101247.91;;;10.05;90.11
51359;BME280;37448;51.588;7.248;2023-04-29T09:45:44;101235.66;;;10.14;91.20
51359;BME280;37448;51.588;7.248;2023-04-29T09:47:45;101240.75;;;10.26;91.75
51359;BME280;37448;51.588;7.248;2023-04-29T09:49:45;101245.03;;;10.32;90.95
51359;BME280;37448;51.588;7.248;2023-04-29T09:51:55;101244.94;;;10.40;90.24
51359;BME280;37448;51.588;7.248;2023-04-29T09:53:56;101247.53;;;10.43;90.10
51359;BME280;37448;51.588;7.248;2023-04-29T09:56:00;101251.88;;;10.44;88.86
51359;BME280;37448;51.588;7.248;2023-04-29T09:58:00;101251.75;;;10.56;89.43
51359;BME280;37448;51.588;7.248;2023-04-29T10:00:01;101250.84;;;10.59;88.90
51359;BME280;37448;51.588;7.248;2023-04-29T10:02:31;101253.31;;;10.71;88.53
51359;BME280;37448;51.588;7.248;2023-04-29T10:04:34;101246.38;;;10.70;88.92
51359;BME280;37448;51.588;7.248;2023-04-29T10:06:36;101254.91;;;10.82;90.43
51359;BME280;37448;51.588;7.248;2023-04-29T10:08:38;101253.38;;;10.68;85.46
51359;BME280;37448;51.588;7.248;2023-04-29T10:10:40;101257.50;;;10.86;89.46
51359;BME280;37448;51.588;7.248;2023-04-29T10:12:41;101255.72;;;10.88;87.85
51359;BME280;37448;51.588;7.248;2023-04-29T10:14:47;101253.94;;;10.92;87.94
51359;BME280;37448;51.588;7.248;2023-04-29T10:16:55;101260.91;;;10.91;86.83
51359;BME280;37448;51.588;7.248;2023-04-29T10:18:59;101266.91;;;10.97;87.06
51359;BME280;37448;51.588;7.248;2023-04-29T10:21:05;101265.00;;;11.13;90.19
51359;BME280;37448;51.588;7.248;2023-04-29T10:23:07;101260.63;;;11.13;87.88
51359;BME280;37448;51.588;7.248;2023-04-29T10:25:09;101271.91;;;11.17;87.83
51359;BME280;37448;51.588;7.248;2023-04-29T10:27:11;101265.75;;;11.19;88.44
51359;BME280;37448;51.588;7.248;2023-04-29T10:29:13;101264.84;;;11.24;87.97
51359;BME280;37448;51.588;7.248;2023-04-29T10:31:15;101264.75;;;11.30;88.72
51359;BME280;37448;51.588;7.248;2023-04-29T10:33:17;101268.19;;;11.33;87.41
51359;BME280;37448;51.588;7.248;2023-04-29T10:35:20;101270.72;;;11.38;86.79
51359;BME280;37448;51.588;7.248;2023-04-29T10:37:23;101266.25;;;11.45;86.78
51359;BME280;37448;51.588;7.248;2023-04-29T10:39:41;101266.38;;;11.39;82.50
51359;BME280;37448;51.588;7.248;2023-04-29T10:41:44;101268.66;;;11.59;86.85
51359;BME280;37448;51.588;7.248;2023-04-29T10:43:47;101270.16;;;11.75;88.44
51359;BME280;37448;51.588;7.248;2023-04-29T10:45:48;101270.16;;;11.75;83.63
51359;BME280;37448;51.588;7.248;2023-04-29T10:50:01;101265.09;;;11.63;77.12
51359;BME280;37448;51.588;7.248;2023-04-29T10:52:03;101259.25;;;12.03;84.82
51359;BME280;37448;51.588;7.248;2023-04-29T10:54:14;101267.59;;;12.24;85.87
51359;BME280;37448;51.588;7.248;2023-04-29T10:56:16;101268.47;;;12.25;78.99
51359;BME280;37448;51.588;7.248;2023-04-29T11:00:36;101269.16;;;12.34;82.42